sensor_id;sensor_type;location;lat;lon;timestamp;P1;durP1;ratioP1;P2;durP2;ratioP2
11847;SDS011;5983;49.966;8.052;2023-03-14T00:01:20;1.93;;;0.70;;
11847;SDS011;5983;49.966;8.052;2023-03-14T00:03:47;2.33;;;0.90;;
11847;SDS011;5983;49.966;8.052;2023-03-14T00:06:15;2.77;;;1.00;;
11847;SDS011;5983;49.966;8.052;2023-03-14T00:08:43;2.33;;;0.80;;
11847;SDS011;5983;49.966;8.052;2023-03-14T00:11:11;4.27;;;1.07;;
11847;SDS011;5983;49.966;8.052;2023-03-14T00:13:41;3.27;;;1.20;;
11847;SDS011;5983;49.966;8.052;2023-03-14T00:16:09;5.07;;;1.10;;
11847;SDS011;5983;49.966;8.052;2023-03-14T00:18:38;4.97;;;1.37;;
11847;SDS011;5983;49.966;8.052;2023-03-14T00:21:07;3.43;;;1.20;;
11847;SDS011;5983;49.966;8.052;2023-03-14T00:23:36;3.23;;;0.90;;
11847;SDS011;5983;49.966;8.052;2023-03-14T00:26:06;1.67;;;0.70;;
11847;SDS011;5983;49.966;8.052;2023-03-14T00:28:35;1.90;;;0.97;;
11847;SDS011;5983;49.966;8.052;2023-03-14T00:31:04;3.40;;;0.80;;
11847;SDS011;5983;49.966;8.052;2023-03-14T00:33:33;4.57;;;0.83;;
11847;SDS011;5983;49.966;8.052;2023-03-14T00:36:02;5.97;;;1.13;;
11847;SDS011;5983;49.966;8.052;2023-03-14T00:38:33;2.30;;;0.80;;
11847;SDS011;5983;49.966;8.052;2023-03-14T00:41:02;3.03;;;0.83;;
11847;SDS011;5983;49.966;8.052;2023-03-14T00:43:30;5.23;;;1.07;;
11847;SDS011;5983;49.966;8.052;2023-03-14T00:45:57;3.50;;;0.97;;
11847;SDS011;5983;49.966;8.052;2023-03-14T00:48:26;4.10;;;1.03;;
11847;SDS011;5983;49.966;8.052;2023-03-14T00:50:53;4.17;;;0.90;;
11847;SDS011;5983;49.966;8.052;2023-03-14T00:53:20;4.57;;;1.27;;
11847;SDS011;5983;49.966;8.052;2023-03-14T00:55:47;2.97;;;0.93;;
11847;SDS011;5983;49.966;8.052;2023-03-14T00:58:15;4.23;;;1.10;;
11847;SDS011;5983;49.966;8.052;2023-03-14T01:00:44;4.53;;;0.90;;
11847;SDS011;5983;49.966;8.052;2023-03-14T01:03:12;7.57;;;1.40;;
11847;SDS011;5983;49.966;8.052;2023-03-14T01:05:41;2.17;;;0.70;;
11847;SDS011;5983;49.966;8.052;2023-03-14T01:08:08;2.80;;;0.87;;
11847;SDS011;5983;49.966;8.052;2023-03-14T01:10:37;5.27;;;1.20;;
11847;SDS011;5983;49.966;8.052;2023-03-14T01:13:05;1.73;;;0.70;;
11847;SDS011;5983;49.966;8.052;2023-03-14T01:15:32;5.33;;;1.17;;
11847;SDS011;5983;49.966;8.052;2023-03-14T01:17:59;4.13;;;0.93;;
11847;SDS011;5983;49.966;8.052;2023-03-14T01:20:26;6.00;;;1.37;;
11847;SDS011;5983;49.966;8.052;2023-03-14T01:22:55;3.57;;;1.20;;
11847;SDS011;5983;49.966;8.052;2023-03-14T01:25:22;6.40;;;1.03;;
11847;SDS011;5983;49.966;8.052;2023-03-14T01:27:48;4.43;;;1.40;;
11847;SDS011;5983;49.966;8.052;2023-03-14T01:30:15;4.97;;;1.40;;
11847;SDS011;5983;49.966;8.052;2023-03-14T01:32:42;3.53;;;0.90;;
11847;SDS011;5983;49.966;8.052;2023-03-14T01:35:09;7.13;;;1.30;;
11847;SDS011;5983;49.966;8.052;2023-03-14T01:37:36;5.80;;;1.30;;
11847;SDS011;5983;49.966;8.052;2023-03-14T01:40:05;5.13;;;1.23;;
11847;SDS011;5983;49.966;8.052;2023-03-14T01:42:33;6.40;;;1.50;;
11847;SDS011;5983;49.966;8.052;2023-03-14T01:45:00;3.80;;;1.27;;
11847;SDS011;5983;49.966;8.052;2023-03-14T01:47:28;6.80;;;1.27;;
11847;SDS011;5983;49.966;8.052;2023-03-14T01:49:56;3.50;;;1.10;;
11847;SDS011;5983;49.966;8.052;2023-03-14T01:52:30;3.13;;;0.70;;
11847;SDS011;5983;49.966;8.052;2023-03-14T01:55:03;4.23;;;0.80;;
11847;SDS011;5983;49.966;8.052;2023-03-14T01:57:35;6.53;;;1.33;;
11847;SDS011;5983;49.966;8.052;2023-03-14T02:00:09;4.30;;;0.90;;
11847;SDS011;5983;49.966;8.052;2023-03-14T02:02:40;3.20;;;1.13;;
11847;SDS011;5983;49.966;8.052;2023-03-14T02:05:11;2.57;;;0.80;;
11847;SDS011;5983;49.966;8.052;2023-03-14T02:07:43;5.10;;;1.10;;
11847;SDS011;5983;49.966;8.052;2023-03-14T02:10:18;5.03;;;1.27;;
11847;SDS011;5983;49.966;8.052;2023-03-14T02:12:48;4.23;;;1.63;;
11847;SDS011;5983;49.966;8.052;2023-03-14T02:15:17;4.30;;;1.10;;
11847;SDS011;5983;49.966;8.052;2023-03-14T02:17:44;3.47;;;1.00;;
11847;SDS011;5983;49.966;8.052;2023-03-14T02:20:15;6.33;;;1.13;;
11847;SDS011;5983;49.966;8.052;2023-03-14T02:22:55;5.77;;;1.20;;
11847;SDS011;5983;49.966;8.052;2023-03-14T02:25:24;4.17;;;1.07;;
11847;SDS011;5983;49.966;8.052;2023-03-14T02:28:06;4.20;;;1.00;;
11847;SDS011;5983;49.966;8.052;2023-03-14T02:30:33;7.33;;;1.27;;
11847;SDS011;5983;49.966;8.052;2023-03-14T02:33:01;7.87;;;1.20;;
11847;SDS011;5983;49.966;8.052;2023-03-14T02:35:33;5.87;;;1.20;;
11847;SDS011;5983;49.966;8.052;2023-03-14T02:38:07;4.00;;;1.13;;
11847;SDS011;5983;49.966;8.052;2023-03-14T02:40:43;8.37;;;1.50;;
11847;SDS011;5983;49.966;8.052;2023-03-14T02:43:12;1.63;;;0.80;;
11847;SDS011;5983;49.966;8.052;2023-03-14T02:45:40;5.67;;;1.50;;
11847;SDS011;5983;49.966;8.052;2023-03-14T02:48:12;2.77;;;0.90;;
11847;SDS011;5983;49.966;8.052;2023-03-14T02:50:44;3.00;;;1.17;;
11847;SDS011;5983;49.966;8.052;2023-03-14T02:53:16;4.00;;;1.80;;
11847;SDS011;5983;49.966;8.052;2023-03-14T02:55:47;3.63;;;1.17;;
11847;SDS011;5983;49.966;8.052;2023-03-14T02:58:17;5.27;;;1.47;;
11847;SDS011;5983;49.966;8.052;2023-03-14T03:00:45;3.40;;;1.30;;
11847;SDS011;5983;49.966;8.052;2023-03-14T03:03:12;5.60;;;1.60;;
11847;SDS011;5983;49.966;8.052;2023-03-14T03:05:40;4.60;;;1.50;;
11847;SDS011;5983;49.966;8.052;2023-03-14T03:08:07;8.13;;;1.30;;
11847;SDS011;5983;49.966;8.052;2023-03-14T03:10:34;4.90;;;1.57;;
11847;SDS011;5983;49.966;8.052;2023-03-14T03:13:01;6.93;;;1.30;;
11847;SDS011;5983;49.966;8.052;2023-03-14T03:15:30;3.27;;;1.00;;
11847;SDS011;5983;49.966;8.052;2023-03-14T03:17:57;3.70;;;1.10;;
11847;SDS011;5983;49.966;8.052;2023-03-14T03:20:24;3.80;;;1.00;;
11847;SDS011;5983;49.966;8.052;2023-03-14T03:22:51;3.83;;;0.90;;
11847;SDS011;5983;49.966;8.052;2023-03-14T03:25:18;4.50;;;1.23;;
11847;SDS011;5983;49.966;8.052;2023-03-14T03:27:45;4.10;;;1.60;;
11847;SDS011;5983;49.966;8.052;2023-03-14T03:30:12;3.97;;;1.10;;
11847;SDS011;5983;49.966;8.052;2023-03-14T03:32:41;5.60;;;1.20;;
11847;SDS011;5983;49.966;8.052;2023-03-14T03:35:09;3.50;;;1.30;;
11847;SDS011;5983;49.966;8.052;2023-03-14T03:37:36;3.00;;;1.53;;
11847;SDS011;5983;49.966;8.052;2023-03-14T03:40:04;4.27;;;1.40;;
11847;SDS011;5983;49.966;8.052;2023-03-14T03:42:32;2.30;;;1.20;;
11847;SDS011;5983;49.966;8.052;2023-03-14T03:44:59;5.73;;;1.20;;
11847;SDS011;5983;49.966;8.052;2023-03-14T03:47:29;5.03;;;1.00;;
11847;SDS011;5983;49.966;8.052;2023-03-14T03:49:58;5.60;;;1.10;;
11847;SDS011;5983;49.966;8.052;2023-03-14T03:52:25;2.40;;;0.93;;
11847;SDS011;5983;49.966;8.052;2023-03-14T03:54:52;0.80;;;0.60;;
11847;SDS011;5983;49.966;8.052;2023-03-14T03:57:19;3.57;;;1.10;;
11847;SDS011;5983;49.966;8.052;2023-03-14T03:59:46;3.47;;;1.00;;
11847;SDS011;5983;49.966;8.052;2023-03-14T04:02:13;2.93;;;1.00;;
11847;SDS011;5983;49.966;8.052;2023-03-14T04:04:40;2.47;;;1.10;;
11847;SDS011;5983;49.966;8.052;2023-03-14T04:07:08;4.93;;;1.37;;
11847;SDS011;5983;49.966;8.052;2023-03-14T04:09:35;4.73;;;1.27;;
11847;SDS011;5983;49.966;8.052;2023-03-14T04:12:04;3.60;;;1.10;;
11847;SDS011;5983;49.966;8.052;2023-03-14T04:14:31;2.73;;;0.93;;
11847;SDS011;5983;49.966;8.052;2023-03-14T04:16:58;6.50;;;1.40;;
11847;SDS011;5983;49.966;8.052;2023-03-14T04:19:24;4.00;;;1.00;;
11847;SDS011;5983;49.966;8.052;2023-03-14T04:21:51;2.87;;;0.90;;
11847;SDS011;5983;49.966;8.052;2023-03-14T04:24:19;1.77;;;1.00;;
11847;SDS011;5983;49.966;8.052;2023-03-14T04:26:46;2.30;;;0.80;;
11847;SDS011;5983;49.966;8.052;2023-03-14T04:29:14;5.77;;;1.00;;
11847;SDS011;5983;49.966;8.052;2023-03-14T04:31:40;2.13;;;0.90;;
11847;SDS011;5983;49.966;8.052;2023-03-14T04:34:07;1.90;;;0.63;;
11847;SDS011;5983;49.966;8.052;2023-03-14T04:36:34;1.73;;;0.80;;
11847;SDS011;5983;49.966;8.052;2023-03-14T04:39:01;2.17;;;1.03;;
11847;SDS011;5983;49.966;8.052;2023-03-14T04:41:30;3.03;;;0.80;;
11847;SDS011;5983;49.966;8.052;2023-03-14T04:43:57;4.67;;;1.33;;
11847;SDS011;5983;49.966;8.052;2023-03-14T04:46:24;5.60;;;0.63;;
11847;SDS011;5983;49.966;8.052;2023-03-14T04:48:51;2.13;;;0.60;;
11847;SDS011;5983;49.966;8.052;2023-03-14T04:51:18;1.30;;;0.50;;
11847;SDS011;5983;49.966;8.052;2023-03-14T04:53:47;3.23;;;0.60;;
11847;SDS011;5983;49.966;8.052;2023-03-14T04:56:14;3.47;;;0.67;;
11847;SDS011;5983;49.966;8.052;2023-03-14T04:58:42;2.73;;;0.90;;
11847;SDS011;5983;49.966;8.052;2023-03-14T05:01:09;2.73;;;0.70;;
11847;SDS011;5983;49.966;8.052;2023-03-14T05:03:36;1.50;;;0.63;;
11847;SDS011;5983;49.966;8.052;2023-03-14T05:06:03;3.13;;;1.00;;
11847;SDS011;5983;49.966;8.052;2023-03-14T05:08:31;3.10;;;0.93;;
11847;SDS011;5983;49.966;8.052;2023-03-14T05:10:58;3.87;;;0.70;;
11847;SDS011;5983;49.966;8.052;2023-03-14T05:13:25;2.23;;;0.80;;
11847;SDS011;5983;49.966;8.052;2023-03-14T05:15:53;2.90;;;0.70;;
11847;SDS011;5983;49.966;8.052;2023-03-14T05:18:28;3.43;;;0.87;;
11847;SDS011;5983;49.966;8.052;2023-03-14T05:20:55;3.73;;;1.40;;
11847;SDS011;5983;49.966;8.052;2023-03-14T05:23:22;3.13;;;1.00;;
11847;SDS011;5983;49.966;8.052;2023-03-14T05:25:49;2.53;;;0.77;;
11847;SDS011;5983;49.966;8.052;2023-03-14T05:28:15;0.73;;;0.50;;
11847;SDS011;5983;49.966;8.052;2023-03-14T05:30:42;4.10;;;0.80;;
11847;SDS011;5983;49.966;8.052;2023-03-14T05:33:10;2.90;;;0.83;;
11847;SDS011;5983;49.966;8.052;2023-03-14T05:35:37;1.90;;;0.60;;
11847;SDS011;5983;49.966;8.052;2023-03-14T05:38:04;1.83;;;0.50;;
11847;SDS011;5983;49.966;8.052;2023-03-14T05:40:31;2.07;;;0.60;;
11847;SDS011;5983;49.966;8.052;2023-03-14T05:42:58;1.83;;;0.90;;
11847;SDS011;5983;49.966;8.052;2023-03-14T05:45:25;3.07;;;0.63;;
11847;SDS011;5983;49.966;8.052;2023-03-14T05:47:52;1.43;;;0.63;;
11847;SDS011;5983;49.966;8.052;2023-03-14T05:50:20;1.83;;;0.87;;
11847;SDS011;5983;49.966;8.052;2023-03-14T05:52:47;1.53;;;0.60;;
11847;SDS011;5983;49.966;8.052;2023-03-14T05:55:13;1.00;;;0.60;;
11847;SDS011;5983;49.966;8.052;2023-03-14T05:57:40;3.73;;;0.70;;
11847;SDS011;5983;49.966;8.052;2023-03-14T06:00:08;3.30;;;0.63;;
11847;SDS011;5983;49.966;8.052;2023-03-14T06:02:36;3.90;;;0.70;;
11847;SDS011;5983;49.966;8.052;2023-03-14T06:05:03;2.73;;;0.50;;
11847;SDS011;5983;49.966;8.052;2023-03-14T06:07:33;3.17;;;0.60;;
11847;SDS011;5983;49.966;8.052;2023-03-14T06:10:00;2.07;;;0.60;;
11847;SDS011;5983;49.966;8.052;2023-03-14T06:12:27;1.50;;;0.50;;
11847;SDS011;5983;49.966;8.052;2023-03-14T06:14:54;3.10;;;0.77;;
11847;SDS011;5983;49.966;8.052;2023-03-14T06:17:21;2.33;;;0.40;;
11847;SDS011;5983;49.966;8.052;2023-03-14T06:19:48;1.80;;;0.60;;
11847;SDS011;5983;49.966;8.052;2023-03-14T06:22:14;3.43;;;0.93;;
11847;SDS011;5983;49.966;8.052;2023-03-14T06:24:43;1.47;;;0.80;;
11847;SDS011;5983;49.966;8.052;2023-03-14T06:27:10;1.17;;;0.47;;
11847;SDS011;5983;49.966;8.052;2023-03-14T06:29:37;3.03;;;0.60;;
11847;SDS011;5983;49.966;8.052;2023-03-14T06:32:04;3.20;;;0.60;;
11847;SDS011;5983;49.966;8.052;2023-03-14T06:34:31;4.43;;;0.80;;
11847;SDS011;5983;49.966;8.052;2023-03-14T06:36:58;2.37;;;0.60;;
11847;SDS011;5983;49.966;8.052;2023-03-14T06:39:25;0.83;;;0.40;;
11847;SDS011;5983;49.966;8.052;2023-03-14T06:41:53;3.00;;;0.53;;
11847;SDS011;5983;49.966;8.052;2023-03-14T06:44:20;2.70;;;0.67;;
11847;SDS011;5983;49.966;8.052;2023-03-14T06:46:46;4.67;;;0.83;;
11847;SDS011;5983;49.966;8.052;2023-03-14T06:49:13;2.67;;;0.70;;
11847;SDS011;5983;49.966;8.052;2023-03-14T06:51:40;1.03;;;0.50;;
11847;SDS011;5983;49.966;8.052;2023-03-14T06:54:07;1.03;;;0.70;;
11847;SDS011;5983;49.966;8.052;2023-03-14T06:56:34;2.23;;;0.87;;
11847;SDS011;5983;49.966;8.052;2023-03-14T06:59:02;2.10;;;0.50;;
11847;SDS011;5983;49.966;8.052;2023-03-14T07:01:29;3.43;;;0.67;;
11847;SDS011;5983;49.966;8.052;2023-03-14T07:03:59;2.40;;;0.60;;
11847;SDS011;5983;49.966;8.052;2023-03-14T07:06:27;1.43;;;0.50;;
11847;SDS011;5983;49.966;8.052;2023-03-14T07:08:54;3.40;;;0.50;;
11847;SDS011;5983;49.966;8.052;2023-03-14T07:11:22;1.90;;;0.60;;
11847;SDS011;5983;49.966;8.052;2023-03-14T07:13:49;2.67;;;0.90;;
11847;SDS011;5983;49.966;8.052;2023-03-14T07:16:17;2.73;;;0.50;;
11847;SDS011;5983;49.966;8.052;2023-03-14T07:18:44;3.13;;;0.50;;
11847;SDS011;5983;49.966;8.052;2023-03-14T07:21:11;2.33;;;0.50;;
11847;SDS011;5983;49.966;8.052;2023-03-14T07:23:39;4.63;;;1.07;;
11847;SDS011;5983;49.966;8.052;2023-03-14T07:26:06;1.43;;;0.70;;
11847;SDS011;5983;49.966;8.052;2023-03-14T07:28:33;4.23;;;0.63;;
11847;SDS011;5983;49.966;8.052;2023-03-14T07:31:00;1.80;;;0.40;;
11847;SDS011;5983;49.966;8.052;2023-03-14T07:33:28;1.23;;;0.40;;
11847;SDS011;5983;49.966;8.052;2023-03-14T07:35:55;2.23;;;0.70;;
11847;SDS011;5983;49.966;8.052;2023-03-14T07:38:22;1.63;;;0.70;;
11847;SDS011;5983;49.966;8.052;2023-03-14T07:40:50;3.13;;;0.60;;
11847;SDS011;5983;49.966;8.052;2023-03-14T07:43:24;2.87;;;0.80;;
11847;SDS011;5983;49.966;8.052;2023-03-14T07:45:51;1.47;;;0.60;;
11847;SDS011;5983;49.966;8.052;2023-03-14T07:48:18;0.40;;;0.40;;
11847;SDS011;5983;49.966;8.052;2023-03-14T07:50:49;2.17;;;0.60;;
11847;SDS011;5983;49.966;8.052;2023-03-14T07:53:16;1.20;;;0.33;;
11847;SDS011;5983;49.966;8.052;2023-03-14T07:55:43;2.50;;;0.63;;
11847;SDS011;5983;49.966;8.052;2023-03-14T07:58:10;1.40;;;0.43;;
11847;SDS011;5983;49.966;8.052;2023-03-14T08:00:37;2.03;;;0.43;;
11847;SDS011;5983;49.966;8.052;2023-03-14T08:03:04;2.10;;;0.30;;
11847;SDS011;5983;49.966;8.052;2023-03-14T08:05:33;2.47;;;0.87;;
11847;SDS011;5983;49.966;8.052;2023-03-14T08:08:03;1.23;;;0.60;;
11847;SDS011;5983;49.966;8.052;2023-03-14T08:10:31;1.80;;;0.73;;
11847;SDS011;5983;49.966;8.052;2023-03-14T08:12:58;4.93;;;0.70;;
11847;SDS011;5983;49.966;8.052;2023-03-14T08:15:27;1.50;;;0.50;;
11847;SDS011;5983;49.966;8.052;2023-03-14T08:17:56;2.50;;;1.07;;
11847;SDS011;5983;49.966;8.052;2023-03-14T08:20:25;0.70;;;0.40;;
11847;SDS011;5983;49.966;8.052;2023-03-14T08:22:55;2.73;;;0.90;;
11847;SDS011;5983;49.966;8.052;2023-03-14T08:25:24;0.70;;;0.50;;
11847;SDS011;5983;49.966;8.052;2023-03-14T08:27:52;1.53;;;0.50;;
11847;SDS011;5983;49.966;8.052;2023-03-14T08:30:20;1.33;;;0.53;;
11847;SDS011;5983;49.966;8.052;2023-03-14T08:32:48;0.97;;;0.57;;
11847;SDS011;5983;49.966;8.052;2023-03-14T08:35:15;1.03;;;0.50;;
11847;SDS011;5983;49.966;8.052;2023-03-14T08:37:42;1.50;;;0.50;;
11847;SDS011;5983;49.966;8.052;2023-03-14T08:40:09;1.63;;;0.67;;
11847;SDS011;5983;49.966;8.052;2023-03-14T08:42:39;1.90;;;0.30;;
11847;SDS011;5983;49.966;8.052;2023-03-14T08:45:07;1.90;;;0.77;;
11847;SDS011;5983;49.966;8.052;2023-03-14T08:47:37;1.17;;;0.47;;
11847;SDS011;5983;49.966;8.052;2023-03-14T08:50:04;1.60;;;0.70;;
11847;SDS011;5983;49.966;8.052;2023-03-14T08:52:33;0.50;;;0.30;;
11847;SDS011;5983;49.966;8.052;2023-03-14T08:54:59;2.20;;;0.50;;
11847;SDS011;5983;49.966;8.052;2023-03-14T08:57:26;0.80;;;0.40;;
11847;SDS011;5983;49.966;8.052;2023-03-14T08:59:55;2.93;;;0.50;;
11847;SDS011;5983;49.966;8.052;2023-03-14T09:02:22;2.23;;;0.40;;
11847;SDS011;5983;49.966;8.052;2023-03-14T09:04:51;2.03;;;0.60;;
11847;SDS011;5983;49.966;8.052;2023-03-14T09:07:19;1.27;;;0.60;;
11847;SDS011;5983;49.966;8.052;2023-03-14T09:09:46;0.70;;;0.40;;
11847;SDS011;5983;49.966;8.052;2023-03-14T09:12:13;1.17;;;0.50;;
11847;SDS011;5983;49.966;8.052;2023-03-14T09:14:40;0.97;;;0.47;;
11847;SDS011;5983;49.966;8.052;2023-03-14T09:17:08;3.20;;;0.43;;
11847;SDS011;5983;49.966;8.052;2023-03-14T09:19:35;0.93;;;0.40;;
11847;SDS011;5983;49.966;8.052;2023-03-14T09:22:02;0.83;;;0.30;;
11847;SDS011;5983;49.966;8.052;2023-03-14T09:24:29;1.40;;;0.60;;
11847;SDS011;5983;49.966;8.052;2023-03-14T09:26:58;0.70;;;0.20;;
11847;SDS011;5983;49.966;8.052;2023-03-14T09:29:25;0.50;;;0.40;;
11847;SDS011;5983;49.966;8.052;2023-03-14T09:31:51;4.43;;;0.60;;
11847;SDS011;5983;49.966;8.052;2023-03-14T09:34:20;2.33;;;0.40;;
11847;SDS011;5983;49.966;8.052;2023-03-14T09:36:46;1.23;;;0.20;;
11847;SDS011;5983;49.966;8.052;2023-03-14T09:39:14;1.77;;;0.30;;
11847;SDS011;5983;49.966;8.052;2023-03-14T09:41:42;0.40;;;0.30;;
11847;SDS011;5983;49.966;8.052;2023-03-14T09:44:13;0.63;;;0.40;;
11847;SDS011;5983;49.966;8.052;2023-03-14T09:46:46;0.30;;;0.30;;
11847;SDS011;5983;49.966;8.052;2023-03-14T09:49:21;1.23;;;0.40;;
11847;SDS011;5983;49.966;8.052;2023-03-14T09:51:54;0.40;;;0.30;;
11847;SDS011;5983;49.966;8.052;2023-03-14T09:54:34;0.37;;;0.30;;
11847;SDS011;5983;49.966;8.052;2023-03-14T09:57:05;0.40;;;0.40;;
11847;SDS011;5983;49.966;8.052;2023-03-14T09:59:38;0.67;;;0.30;;
11847;SDS011;5983;49.966;8.052;2023-03-14T10:02:15;1.80;;;0.30;;
11847;SDS011;5983;49.966;8.052;2023-03-14T10:04:48;0.37;;;0.30;;
11847;SDS011;5983;49.966;8.052;2023-03-14T10:07:19;0.40;;;0.30;;
11847;SDS011;5983;49.966;8.052;2023-03-14T10:09:53;1.70;;;0.40;;
11847;SDS011;5983;49.966;8.052;2023-03-14T10:12:22;0.30;;;0.20;;
11847;SDS011;5983;49.966;8.052;2023-03-14T10:15:00;1.20;;;0.50;;
11847;SDS011;5983;49.966;8.052;2023-03-14T10:17:37;0.60;;;0.30;;
11847;SDS011;5983;49.966;8.052;2023-03-14T10:20:14;0.47;;;0.20;;
11847;SDS011;5983;49.966;8.052;2023-03-14T10:22:58;0.67;;;0.53;;
11847;SDS011;5983;49.966;8.052;2023-03-14T10:25:26;0.97;;;0.40;;
11847;SDS011;5983;49.966;8.052;2023-03-14T10:27:56;0.73;;;0.30;;
11847;SDS011;5983;49.966;8.052;2023-03-14T10:30:27;1.33;;;0.40;;
11847;SDS011;5983;49.966;8.052;2023-03-14T10:33:09;0.67;;;0.67;;
11847;SDS011;5983;49.966;8.052;2023-03-14T10:35:39;0.77;;;0.20;;
11847;SDS011;5983;49.966;8.052;2023-03-14T10:38:10;0.20;;;0.20;;
11847;SDS011;5983;49.966;8.052;2023-03-14T10:40:41;0.93;;;0.20;;
11847;SDS011;5983;49.966;8.052;2023-03-14T10:43:15;1.33;;;0.40;;
11847;SDS011;5983;49.966;8.052;2023-03-14T10:45:50;0.10;;;0.10;;
11847;SDS011;5983;49.966;8.052;2023-03-14T10:48:23;0.30;;;0.20;;
11847;SDS011;5983;49.966;8.052;2023-03-14T10:51:03;0.83;;;0.20;;
11847;SDS011;5983;49.966;8.052;2023-03-14T10:53:33;0.30;;;0.20;;
11847;SDS011;5983;49.966;8.052;2023-03-14T10:56:06;1.60;;;0.20;;
11847;SDS011;5983;49.966;8.052;2023-03-14T10:58:38;0.10;;;0.10;;
11847;SDS011;5983;49.966;8.052;2023-03-14T11:01:13;0.40;;;0.10;;
11847;SDS011;5983;49.966;8.052;2023-03-14T11:03:56;1.37;;;0.30;;
11847;SDS011;5983;49.966;8.052;2023-03-14T11:06:34;1.70;;;0.20;;
11847;SDS011;5983;49.966;8.052;2023-03-14T11:09:10;0.67;;;0.20;;
11847;SDS011;5983;49.966;8.052;2023-03-14T11:11:47;1.20;;;0.20;;
11847;SDS011;5983;49.966;8.052;2023-03-14T11:14:16;0.20;;;0.20;;
11847;SDS011;5983;49.966;8.052;2023-03-14T11:16:56;0.40;;;0.23;;
11847;SDS011;5983;49.966;8.052;2023-03-14T11:19:33;0.10;;;0.10;;
11847;SDS011;5983;49.966;8.052;2023-03-14T11:22:20;0.53;;;0.20;;
11847;SDS011;5983;49.966;8.052;2023-03-14T11:24:57;1.27;;;0.47;;
11847;SDS011;5983;49.966;8.052;2023-03-14T11:27:54;0.20;;;0.20;;
11847;SDS011;5983;49.966;8.052;2023-03-14T11:30:35;0.30;;;0.20;;
11847;SDS011;5983;49.966;8.052;2023-03-14T11:33:14;0.20;;;0.20;;
11847;SDS011;5983;49.966;8.052;2023-03-14T11:35:45;0.10;;;0.10;;
11847;SDS011;5983;49.966;8.052;2023-03-14T11:38:23;0.10;;;0.10;;
11847;SDS011;5983;49.966;8.052;2023-03-14T11:40:59;0.17;;;0.17;;
11847;SDS011;5983;49.966;8.052;2023-03-14T11:43:28;0.10;;;0.10;;
11847;SDS011;5983;49.966;8.052;2023-03-14T11:46:01;2.00;;;0.10;;
11847;SDS011;5983;49.966;8.052;2023-03-14T11:48:35;2.43;;;0.10;;
11847;SDS011;5983;49.966;8.052;2023-03-14T11:51:12;0.77;;;0.00;;
11847;SDS011;5983;49.966;8.052;2023-03-14T11:53:50;0.13;;;0.00;;
11847;SDS011;5983;49.966;8.052;2023-03-14T11:56:29;0.10;;;0.00;;
11847;SDS011;5983;49.966;8.052;2023-03-14T11:59:05;0.00;;;0.00;;
11847;SDS011;5983;49.966;8.052;2023-03-14T12:01:49;0.57;;;0.10;;
11847;SDS011;5983;49.966;8.052;2023-03-14T12:04:31;0.00;;;0.00;;
11847;SDS011;5983;49.966;8.052;2023-03-14T12:07:15;0.07;;;0.07;;
11847;SDS011;5983;49.966;8.052;2023-03-14T12:09:48;0.10;;;0.10;;
11847;SDS011;5983;49.966;8.052;2023-03-14T12:12:18;0.00;;;0.00;;
11847;SDS011;5983;49.966;8.052;2023-03-14T12:14:52;0.10;;;0.10;;
11847;SDS011;5983;49.966;8.052;2023-03-14T12:17:21;0.00;;;0.00;;
11847;SDS011;5983;49.966;8.052;2023-03-14T12:19:59;0.00;;;0.00;;
11847;SDS011;5983;49.966;8.052;2023-03-14T12:22:33;0.10;;;0.10;;
11847;SDS011;5983;49.966;8.052;2023-03-14T12:25:04;0.10;;;0.10;;
11847;SDS011;5983;49.966;8.052;2023-03-14T12:27:42;0.97;;;0.17;;
11847;SDS011;5983;49.966;8.052;2023-03-14T12:30:17;2.47;;;0.20;;
11847;SDS011;5983;49.966;8.052;2023-03-14T12:33:11;1.50;;;0.20;;
11847;SDS011;5983;49.966;8.052;2023-03-14T12:35:57;0.60;;;0.13;;
11847;SDS011;5983;49.966;8.052;2023-03-14T12:38:32;0.10;;;0.10;;
11847;SDS011;5983;49.966;8.052;2023-03-14T12:41:19;0.00;;;0.00;;
11847;SDS011;5983;49.966;8.052;2023-03-14T12:43:52;0.20;;;0.20;;
11847;SDS011;5983;49.966;8.052;2023-03-14T12:46:20;0.10;;;0.10;;
11847;SDS011;5983;49.966;8.052;2023-03-14T12:48:53;0.10;;;0.10;;
11847;SDS011;5983;49.966;8.052;2023-03-14T12:51:28;0.10;;;0.10;;
11847;SDS011;5983;49.966;8.052;2023-03-14T12:54:07;0.77;;;0.10;;
11847;SDS011;5983;49.966;8.052;2023-03-14T12:59:55;0.10;;;0.10;;
11847;SDS011;5983;49.966;8.052;2023-03-14T13:02:25;0.10;;;0.10;;
11847;SDS011;5983;49.966;8.052;2023-03-14T13:05:00;0.43;;;0.30;;
11847;SDS011;5983;49.966;8.052;2023-03-14T13:07:34;0.10;;;0.10;;
11847;SDS011;5983;49.966;8.052;2023-03-14T13:10:30;0.30;;;0.20;;
11847;SDS011;5983;49.966;8.052;2023-03-14T13:13:20;0.57;;;0.20;;
11847;SDS011;5983;49.966;8.052;2023-03-14T13:15:49;0.10;;;0.10;;
11847;SDS011;5983;49.966;8.052;2023-03-14T13:18:24;0.10;;;0.10;;
11847;SDS011;5983;49.966;8.052;2023-03-14T13:20:59;0.57;;;0.20;;
11847;SDS011;5983;49.966;8.052;2023-03-14T13:23:33;0.20;;;0.20;;
11847;SDS011;5983;49.966;8.052;2023-03-14T13:26:03;0.90;;;0.40;;
11847;SDS011;5983;49.966;8.052;2023-03-14T13:28:40;0.30;;;0.30;;
11847;SDS011;5983;49.966;8.052;2023-03-14T13:31:22;8.37;;;0.20;;
11847;SDS011;5983;49.966;8.052;2023-03-14T13:33:57;0.40;;;0.30;;
11847;SDS011;5983;49.966;8.052;2023-03-14T13:36:26;0.30;;;0.30;;
11847;SDS011;5983;49.966;8.052;2023-03-14T13:38:56;0.40;;;0.30;;
11847;SDS011;5983;49.966;8.052;2023-03-14T13:41:26;0.37;;;0.37;;
11847;SDS011;5983;49.966;8.052;2023-03-14T13:43:58;0.57;;;0.50;;
11847;SDS011;5983;49.966;8.052;2023-03-14T13:46:32;1.10;;;0.50;;
11847;SDS011;5983;49.966;8.052;2023-03-14T13:49:02;0.30;;;0.30;;
11847;SDS011;5983;49.966;8.052;2023-03-14T13:51:31;2.10;;;0.37;;
11847;SDS011;5983;49.966;8.052;2023-03-14T13:53:59;0.57;;;0.33;;
11847;SDS011;5983;49.966;8.052;2023-03-14T13:56:28;1.50;;;0.60;;
11847;SDS011;5983;49.966;8.052;2023-03-14T13:58:59;1.33;;;0.30;;
11847;SDS011;5983;49.966;8.052;2023-03-14T14:01:27;0.30;;;0.30;;
11847;SDS011;5983;49.966;8.052;2023-03-14T14:03:58;0.70;;;0.40;;
11847;SDS011;5983;49.966;8.052;2023-03-14T14:06:32;0.37;;;0.37;;
11847;SDS011;5983;49.966;8.052;2023-03-14T14:09:03;0.30;;;0.30;;
11847;SDS011;5983;49.966;8.052;2023-03-14T14:11:40;0.50;;;0.40;;
11847;SDS011;5983;49.966;8.052;2023-03-14T14:14:17;0.23;;;0.23;;
11847;SDS011;5983;49.966;8.052;2023-03-14T14:16:51;2.20;;;0.43;;
11847;SDS011;5983;49.966;8.052;2023-03-14T14:19:19;1.23;;;0.60;;
11847;SDS011;5983;49.966;8.052;2023-03-14T14:21:49;0.50;;;0.30;;
11847;SDS011;5983;49.966;8.052;2023-03-14T14:24:17;0.67;;;0.33;;
11847;SDS011;5983;49.966;8.052;2023-03-14T14:26:46;1.60;;;0.53;;
11847;SDS011;5983;49.966;8.052;2023-03-14T14:29:23;0.73;;;0.50;;
11847;SDS011;5983;49.966;8.052;2023-03-14T14:32:03;1.27;;;0.40;;
11847;SDS011;5983;49.966;8.052;2023-03-14T14:34:39;3.80;;;0.73;;
11847;SDS011;5983;49.966;8.052;2023-03-14T14:37:17;0.40;;;0.40;;
11847;SDS011;5983;49.966;8.052;2023-03-14T14:39:47;1.43;;;0.60;;
11847;SDS011;5983;49.966;8.052;2023-03-14T14:42:15;0.73;;;0.50;;
11847;SDS011;5983;49.966;8.052;2023-03-14T14:44:48;2.87;;;0.63;;
11847;SDS011;5983;49.966;8.052;2023-03-14T14:47:17;0.50;;;0.40;;
11847;SDS011;5983;49.966;8.052;2023-03-14T14:49:47;1.43;;;0.63;;
11847;SDS011;5983;49.966;8.052;2023-03-14T14:52:16;1.23;;;0.43;;
11847;SDS011;5983;49.966;8.052;2023-03-14T14:54:46;1.23;;;0.60;;
11847;SDS011;5983;49.966;8.052;2023-03-14T14:57:20;0.70;;;0.37;;
11847;SDS011;5983;49.966;8.052;2023-03-14T14:59:51;1.17;;;0.40;;
11847;SDS011;5983;49.966;8.052;2023-03-14T15:02:29;1.23;;;0.50;;
11847;SDS011;5983;49.966;8.052;2023-03-14T15:05:02;1.57;;;0.73;;
11847;SDS011;5983;49.966;8.052;2023-03-14T15:07:31;1.17;;;0.40;;
11847;SDS011;5983;49.966;8.052;2023-03-14T15:09:57;1.03;;;0.50;;
11847;SDS011;5983;49.966;8.052;2023-03-14T15:12:24;0.77;;;0.40;;
11847;SDS011;5983;49.966;8.052;2023-03-14T15:14:52;2.13;;;0.23;;
11847;SDS011;5983;49.966;8.052;2023-03-14T15:17:22;1.57;;;0.57;;
11847;SDS011;5983;49.966;8.052;2023-03-14T15:19:49;0.93;;;0.50;;
11847;SDS011;5983;49.966;8.052;2023-03-14T15:22:16;1.87;;;0.70;;